Time;durP1;ratioP1;P1;durP2;ratioP2;P2;SDS_P1;SDS_P2;PMS_P1;PMS_P2;Temp;Humidity;BMP_temperature;BMP_pressure;BME280_temperature;BME280_humidity;BME280_pressure;Samples;Min_cycle;Max_cycle;Signal;HPM_P1;HPM_P2
2021/01/12 00:02:20;;;;;;;27.27;9.48;;;8.60;99.90;;;8.78;94.96;100695.03;5071739;28;20105;-84
2021/01/12 00:04:53;;;;;;;23.02;8.52;;;8.60;99.90;;;8.77;94.64;100687.97;5071758;28;20379;-85
2021/01/12 00:07:22;;;;;;;26.58;9.07;;;8.60;99.90;;;8.78;94.99;100672.19;5072297;28;20123;-85
2021/01/12 00:09:50;;;;;;;27.55;8.95;;;8.60;99.90;;;8.46;94.92;100621.19;5071597;28;20079;-85
2021/01/12 00:12:18;;;;;;;29.05;9.13;;;8.60;99.90;;;8.76;95.15;100665.13;5071650;28;20045;-86
2021/01/12 00:14:46;;;;;;;26.65;9.65;;;8.60;99.90;;;8.72;95.33;100660.75;5071833;28;20048;-85
2021/01/12 00:17:15;;;;;;;31.05;10.23;;;8.60;99.90;;;8.71;95.30;100662.50;5071627;28;20577;-83
2021/01/12 00:19:42;;;;;;;26.50;8.95;;;8.60;99.90;;;8.59;95.41;100608.91;5071833;28;20074;-86
2021/01/12 00:22:15;;;;;;;30.38;9.25;;;8.60;99.90;;;8.80;95.35;100627.34;5072392;28;20045;-86
2021/01/12 00:24:44;;;;;;;32.22;10.02;;;8.60;99.90;;;8.75;95.61;100631.75;5075220;28;20444;-86
2021/01/12 00:27:12;;;;;;;34.53;9.77;;;8.60;99.90;;;8.69;95.87;100626.47;5075153;28;20068;-85
2021/01/12 00:29:42;;;;;;;31.48;9.55;;;8.60;99.90;;;8.71;95.81;100615.03;5075124;28;20049;-85
2021/01/12 00:32:16;;;;;;;33.33;8.88;;;8.60;99.90;;;8.71;95.96;100614.19;5075310;28;20045;-84
2021/01/12 00:34:44;;;;;;;33.13;9.55;;;8.60;99.90;;;8.78;96.05;100605.38;5075084;28;20135;-86
2021/01/12 00:37:12;;;;;;;33.70;9.93;;;8.60;99.90;;;8.85;95.66;100609.75;5074717;28;20040;-85
2021/01/12 00:39:39;;;;;;;36.42;10.20;;;8.70;99.90;;;8.82;95.20;100602.72;5075184;28;20130;-86
2021/01/12 00:42:10;;;;;;;33.35;9.65;;;8.70;99.90;;;8.84;95.20;100594.81;5074959;28;20083;-85
2021/01/12 00:44:37;;;;;;;38.30;10.45;;;8.70;99.90;;;8.83;95.32;100599.19;5074765;28;20105;-85
2021/01/12 00:47:07;;;;;;;38.13;9.00;;;8.70;99.90;;;8.74;96.06;100585.16;5074970;28;20049;-85
2021/01/12 00:49:36;;;;;;;37.28;9.63;;;8.70;99.90;;;8.73;95.72;100562.31;5075043;28;20052;-83
2021/01/12 00:52:08;;;;;;;41.03;9.80;;;8.70;99.90;;;8.91;95.73;100593.91;5074689;28;20055;-85
2021/01/12 00:54:36;;;;;;;44.42;9.98;;;8.70;99.90;;;8.90;95.82;100574.56;5074946;28;20064;-82
2021/01/12 00:57:04;;;;;;;36.65;8.80;;;8.70;99.90;;;8.85;95.93;100564.91;5074436;28;20082;-85
2021/01/12 00:59:33;;;;;;;39.42;9.40;;;8.70;99.90;;;8.89;95.90;100574.56;5073514;28;20448;-82
2021/01/12 01:02:05;;;;;;;42.45;10.23;;;8.70;99.90;;;8.84;95.74;100557.91;5073199;28;20056;-85
2021/01/12 01:04:36;;;;;;;31.30;7.93;;;8.80;99.90;;;9.01;96.05;100579.81;5074718;28;20036;-85
2021/01/12 01:07:04;;;;;;;38.88;9.27;;;8.80;99.90;;;8.98;95.38;100550.81;5074601;28;20114;-85
2021/01/12 01:09:31;;;;;;;46.15;9.52;;;8.90;99.90;;;8.91;95.64;100539.41;5074516;28;20498;-85
2021/01/12 01:11:59;;;;;;;39.22;10.05;;;9.00;99.90;;;9.15;95.76;100564.84;5090117;28;20472;-84
2021/01/12 01:14:26;;;;;;;47.03;9.93;;;9.00;99.90;;;9.02;95.47;100552.53;5074258;28;20119;-85
2021/01/12 01:16:53;;;;;;;38.50;8.63;;;9.00;99.90;;;9.13;95.20;100556.03;5090060;28;20048;-85
2021/01/12 01:19:21;;;;;;;39.65;9.75;;;9.00;99.90;;;9.13;95.68;100553.41;5074397;28;20041;-85
2021/01/12 01:21:49;;;;;;;34.40;8.40;;;8.90;99.90;;;9.09;96.12;100551.66;5074093;28;20072;-84
2021/01/12 01:24:21;;;;;;;38.70;8.23;;;9.00;99.90;;;9.13;96.04;100545.50;5074059;28;20044;-85
2021/01/12 01:26:55;;;;;;;;;;;9.00;99.90;;;9.22;96.29;100549.84;5074414;28;20115;-85
2021/01/12 01:29:23;;;;;;;36.13;9.30;;;9.00;99.90;;;9.26;95.85;100541.91;5074160;28;19926;-83
2021/01/12 01:31:51;;;;;;;34.30;8.68;;;9.10;99.90;;;9.03;95.67;100475.19;5074215;28;20068;-84
2021/01/12 01:34:20;;;;;;;47.15;9.07;;;9.20;99.90;;;9.42;95.18;100533.03;5073515;28;20068;-83
2021/01/12 01:36:48;;;;;;;37.90;8.63;;;9.20;99.90;;;9.42;95.02;100543.59;5073595;28;20486;-85
2021/01/12 01:39:17;;;;;;;32.50;7.43;;;9.20;99.90;;;9.43;94.94;100534.78;5073967;28;20044;-84
2021/01/12 01:41:44;;;;;;;28.52;7.90;;;9.30;99.90;;;9.56;94.89;100547.03;5073959;28;20075;-83
2021/01/12 01:44:11;;;;;;;35.55;8.23;;;9.30;99.90;;;9.43;94.88;100541.81;5073658;28;20056;-84
2021/01/12 01:46:42;;;;;;;34.88;8.23;;;9.30;99.90;;;9.49;94.81;100534.75;5073586;28;20045;-83
2021/01/12 01:49:10;;;;;;;37.20;8.45;;;9.30;99.90;;;9.57;94.94;100521.50;5073664;28;20379;-84
2021/01/12 01:51:40;;;;;;;23.40;7.78;;;9.40;99.90;;;9.58;94.85;100510.94;5073564;28;20099;-85
2021/01/12 01:54:11;;;;;;;36.75;8.35;;;9.40;99.90;;;9.49;94.90;100491.63;5073787;28;20044;-84
2021/01/12 01:56:38;;;;;;;36.33;8.00;;;9.40;99.90;;;9.30;94.96;100485.59;5073924;28;20040;-84
2021/01/12 01:59:06;;;;;;;31.67;7.60;;;9.40;99.90;;;9.61;95.48;100517.97;5073419;28;20048;-84
2021/01/12 02:01:36;;;;;;;30.73;7.38;;;9.50;99.90;;;9.58;95.19;100510.94;5073370;28;20048;-84
2021/01/12 02:04:14;;;;;;;21.77;7.50;;;9.50;99.90;;;9.58;94.87;100499.53;5073574;28;20049;-85
2021/01/12 02:06:51;;;;;;;33.80;8.90;;;9.50;99.90;;;9.69;94.86;100516.16;5073397;28;20114;-83
2021/01/12 02:09:24;;;;;;;27.08;8.00;;;9.50;99.90;;;9.70;95.05;100513.50;5088888;28;20497;-84
2021/01/12 02:11:57;;;;;;;23.00;7.43;;;9.50;99.90;;;9.67;94.54;100510.91;5073467;28;20052;-85
2021/01/12 02:14:28;;;;;;;25.02;7.93;;;9.50;99.90;;;9.39;94.49;100451.22;5073439;28;20037;-85
2021/01/12 02:16:56;;;;;;;41.22;8.60;;;9.60;99.90;;;9.72;94.59;100510.84;5073013;28;20062;-85
2021/01/12 02:19:28;;;;;;;35.03;8.10;;;9.60;99.90;;;9.78;94.55;100501.13;5073500;28;20043;-81
2021/01/12 02:22:03;;;;;;;27.52;8.05;;;9.60;99.90;;;9.72;94.63;100498.53;5073334;28;20076;-85
2021/01/12 02:24:34;;;;;;;42.50;10.15;;;9.60;99.90;;;9.68;94.58;100496.78;5072949;28;20537;-85
2021/01/12 02:27:02;;;;;;;28.02;8.13;;;9.60;99.90;;;9.56;94.97;100488.09;5073170;28;20082;-85
2021/01/12 02:29:30;;;;;;;32.67;7.97;;;9.50;99.90;;;9.65;95.22;100493.28;5072738;28;20079;-81
2021/01/12 02:31:58;;;;;;;33.40;8.60;;;9.50;99.90;;;9.60;95.47;100476.63;5072839;28;20375;-85
2021/01/12 02:34:27;;;;;;;35.08;8.13;;;9.50;99.90;;;9.60;95.29;100476.63;5072704;28;20057;-84
2021/01/12 02:36:55;;;;;;;32.95;8.13;;;9.40;99.90;;;9.64;95.10;100462.50;5071548;28;20122;-85
2021/01/12 02:39:23;;;;;;;36.33;8.27;;;9.50;99.90;;;9.69;94.95;100469.50;5072730;28;20090;-85
2021/01/12 02:41:51;;;;;;;39.72;9.38;;;9.50;99.90;;;9.64;95.22;100471.28;5072549;28;20060;-85
2021/01/12 02:44:22;;;;;;;29.40;7.65;;;9.50;99.90;;;9.65;95.35;100473.06;5073086;28;20049;-85
2021/01/12 02:46:50;;;;;;;24.55;7.90;;;9.50;99.90;;;9.79;95.00;100462.38;5071723;28;20044;-84
2021/01/12 02:49:20;;;;;;;31.23;8.35;;;9.60;99.90;;;9.66;95.23;100451.03;5071387;28;20041;-85
2021/01/12 02:51:47;;;;;;;22.42;8.63;;;9.50;99.90;;;9.68;95.21;100454.53;5071364;28;20052;-85
2021/01/12 02:54:15;;;;;;;28.13;8.80;;;9.50;99.90;;;9.74;95.44;100441.28;5072337;28;20044;-83
2021/01/12 02:59:55;;;;;;;29.08;8.65;;;9.60;99.90;;;9.76;95.10;100446.56;5673135;24;20066;-70
2021/01/12 03:02:23;;;;;;;25.23;7.82;;;9.60;99.90;;;9.82;95.43;100442.09;4805392;29;20137;-70
2021/01/12 03:04:50;;;;;;;31.80;8.75;;;9.70;99.90;;;9.76;94.98;100423.66;4805252;29;20058;-69
2021/01/12 03:07:18;;;;;;;30.42;8.43;;;9.60;99.90;;;9.75;95.09;100414.00;4805307;29;20445;-69
2021/01/12 03:09:49;;;;;;;33.50;7.68;;;9.60;99.90;;;9.72;95.21;100414.03;4805122;29;20073;-70
2021/01/12 03:12:18;;;;;;;30.23;9.02;;;9.60;99.90;;;9.65;95.51;100412.31;4805151;29;20051;-69
2021/01/12 03:14:48;;;;;;;32.92;7.68;;;9.50;99.90;;;9.22;95.70;100346.66;4804041;29;20137;-69
2021/01/12 03:17:22;;;;;;;28.27;7.57;;;9.60;99.90;;;9.79;95.67;100405.13;4805077;29;20128;-69
2021/01/12 03:19:49;;;;;;;27.92;7.90;;;9.60;99.90;;;9.79;95.35;100417.50;4805103;29;20181;-69
2021/01/12 03:22:19;;;;;;;23.55;7.55;;;9.60;99.90;;;9.84;95.48;100411.28;4805162;29;20054;-70
2021/01/12 03:24:46;;;;;;;33.85;8.82;;;9.70;99.90;;;9.88;95.00;100410.38;4805233;29;20039;-70
2021/01/12 03:27:17;;;;;;;23.25;7.68;;;9.70;99.90;;;9.88;95.08;100396.28;4804876;29;20141;-70
2021/01/12 03:29:44;;;;;;;31.13;8.10;;;9.80;99.90;;;9.91;94.80;100402.41;4805538;29;20070;-70
2021/01/12 03:32:12;;;;;;;30.60;7.90;;;9.80;99.90;;;9.91;94.97;100401.53;4804922;29;20131;-69
2021/01/12 03:34:42;;;;;;;27.52;7.95;;;9.70;99.90;;;9.91;94.82;100397.13;4804922;29;20133;-70
2021/01/12 03:37:09;;;;;;;36.63;8.55;;;9.80;99.90;;;9.87;94.88;100389.25;4804924;29;20077;-69
2021/01/12 03:39:37;;;;;;;27.27;8.10;;;9.80;99.90;;;9.86;94.79;100392.78;4805122;29;20081;-70
2021/01/12 03:42:04;;;;;;;34.90;8.43;;;9.80;99.90;;;9.88;95.06;100378.66;4804858;29;20043;-69
2021/01/12 03:44:32;;;;;;;29.83;8.43;;;9.70;99.90;;;9.85;94.62;100386.59;4804914;29;20054;-69
2021/01/12 03:46:59;;;;;;;24.15;7.72;;;9.70;99.90;;;9.81;95.20;100387.50;4804765;29;20058;-69
2021/01/12 03:49:27;;;;;;;37.15;7.57;;;9.70;99.90;;;9.89;95.21;100379.56;4804725;29;20062;-70
2021/01/12 03:51:55;;;;;;;34.80;8.63;;;9.80;99.90;;;9.91;94.91;100375.97;4804737;29;20051;-70
2021/01/12 03:54:25;;;;;;;32.08;8.18;;;9.70;99.90;;;9.85;95.17;100373.41;4804752;29;20505;-70
2021/01/12 03:56:52;;;;;;;33.25;8.45;;;9.70;99.90;;;9.90;95.05;100365.44;4804869;29;20450;-70
2021/01/12 03:59:22;;;;;;;26.60;8.40;;;9.80;99.90;;;9.87;95.51;100365.47;4808240;29;20062;-69
2021/01/12 04:01:50;;;;;;;28.38;8.50;;;9.70;99.90;;;9.92;95.03;100356.63;4808029;29;20059;-69
2021/01/12 04:04:17;;;;;;;24.80;8.00;;;9.80;99.90;;;9.84;94.92;100347.88;4808253;29;20116;-70
2021/01/12 04:06:47;;;;;;;25.13;7.07;;;9.70;99.90;;;9.92;95.15;100346.06;4807076;29;20127;-69
2021/01/12 04:09:18;;;;;;;27.87;7.77;;;9.70;99.90;;;9.99;94.88;100342.44;4808317;29;20058;-69
2021/01/12 04:11:48;;;;;;;;;;;9.80;99.90;;;9.98;94.87;100345.09;4808550;29;20804;-69
2021/01/12 04:14:17;;;;;;;28.00;7.70;;;9.80;99.90;;;9.87;95.15;100342.56;4806844;29;19925;-69
2021/01/12 04:16:47;;;;;;;22.83;6.57;;;9.80;99.90;;;9.99;95.14;100339.81;4807955;29;20083;-69
2021/01/12 04:19:17;;;;;;;33.88;7.47;;;9.80;99.90;;;9.94;94.91;100338.97;4808062;29;20054;-69
2021/01/12 04:21:44;;;;;;;29.98;8.27;;;9.80;99.90;;;9.92;95.30;100324.91;4791784;29;20507;-69
2021/01/12 04:24:16;;;;;;;28.52;8.13;;;9.80;99.90;;;9.81;95.02;100310.94;4791682;29;20054;-70
2021/01/12 04:26:47;;;;;;;29.92;7.20;;;9.80;99.90;;;10.03;95.27;100330.94;4807888;29;20062;-69
2021/01/12 04:29:15;;;;;;;23.15;7.25;;;9.90;99.90;;;10.00;94.92;100325.72;4807660;29;20069;-69
2021/01/12 04:31:42;;;;;;;26.67;7.47;;;9.90;99.90;;;10.04;94.93;100323.91;4808008;29;20082;-69
2021/01/12 04:34:12;;;;;;;26.40;7.18;;;9.90;99.90;;;9.93;95.18;100321.38;4807889;29;20103;-69
2021/01/12 04:36:40;;;;;;;30.70;8.55;;;9.80;99.90;;;9.95;95.41;100316.94;4807660;29;20095;-69
2021/01/12 04:39:07;;;;;;;24.63;7.07;;;9.80;99.90;;;9.99;95.76;100313.38;4807653;29;20471;-70
2021/01/12 04:41:36;;;;;;;32.17;8.13;;;9.80;99.90;;;10.01;95.65;100305.44;4806279;29;20141;-69
2021/01/12 04:44:05;;;;;;;31.50;8.33;;;9.90;99.90;;;9.97;95.53;100316.91;4807791;29;20054;-70
2021/01/12 04:46:36;;;;;;;34.95;9.05;;;9.90;99.90;;;9.99;95.74;100297.53;4807565;29;20304;-69
2021/01/12 04:49:04;;;;;;;24.05;7.43;;;9.90;99.90;;;10.03;95.60;100296.59;4807587;29;20139;-70
2021/01/12 04:51:32;;;;;;;24.02;7.40;;;9.90;99.90;;;10.11;95.42;100308.88;4806324;29;20458;-69
2021/01/12 04:53:59;;;;;;;24.40;7.47;;;10.00;99.90;;;10.03;95.15;100290.44;4807507;29;20050;-69
2021/01/12 04:56:29;;;;;;;23.98;7.70;;;10.00;99.90;;;10.12;95.57;100300.06;4807231;29;20058;-69
2021/01/12 04:58:58;;;;;;;29.98;7.55;;;10.00;99.90;;;10.13;95.42;100302.69;4806200;29;20070;-69
2021/01/12 05:01:25;;;;;;;23.58;7.05;;;10.00;99.90;;;10.08;95.58;100309.78;4807213;29;20071;-69
2021/01/12 05:03:56;;;;;;;19.42;7.35;;;10.00;99.90;;;10.14;95.35;100303.56;4807316;29;20081;-69
2021/01/12 05:06:25;;;;;;;27.48;6.43;;;10.00;99.90;;;10.11;95.49;100290.38;4805938;29;20139;-69
2021/01/12 05:08:57;;;;;;;27.23;7.20;;;10.00;99.90;;;9.98;95.29;100261.44;4806289;29;20051;-68
2021/01/12 05:11:28;;;;;;;21.02;6.85;;;10.00;99.90;;;10.06;95.53;100290.41;4807161;29;20082;-66
2021/01/12 05:14:00;;;;;;;28.27;7.35;;;10.00;99.90;;;10.09;95.62;100273.63;4807115;29;20531;-67
2021/01/12 05:16:28;;;;;;;25.48;6.65;;;10.00;99.90;;;10.03;96.35;100307.16;4807048;29;20054;-68
2021/01/12 05:18:59;;;;;;;24.23;6.60;;;9.90;99.90;;;9.92;96.75;100303.78;4807015;29;20058;-68
2021/01/12 05:21:27;;;;;;;17.67;5.40;;;9.80;99.90;;;9.87;96.44;100310.88;4807060;29;20081;-68
2021/01/12 05:24:03;;;;;;;23.85;7.00;;;9.80;99.90;;;9.61;96.53;100331.38;4807025;29;20059;-68
2021/01/12 05:26:37;;;;;;;25.90;6.40;;;9.60;99.90;;;9.59;96.76;100306.75;4807129;29;20058;-68
2021/01/12 05:29:10;;;;;;;22.13;6.50;;;9.50;99.90;;;9.57;96.77;100312.94;4806821;29;20501;-67
2021/01/12 05:31:38;;;;;;;24.60;6.97;;;9.50;99.90;;;9.57;96.66;100305.03;4805625;29;20063;-67
2021/01/12 05:34:07;;;;;;;26.92;7.20;;;9.50;99.90;;;9.57;96.84;100305.03;4806763;29;20050;-67
2021/01/12 05:36:50;;;;;;;39.28;8.63;;;9.50;99.90;;;9.61;97.46;100301.47;4806618;29;20111;-67
2021/01/12 05:39:19;;;;;;;31.60;7.85;;;9.40;99.90;;;9.60;97.51;100319.06;4806807;29;20074;-67
2021/01/12 05:41:50;;;;;;;33.67;7.03;;;9.50;99.90;;;9.59;97.15;100319.97;4806771;29;20054;-67
2021/01/12 05:44:21;;;;;;;32.22;7.38;;;9.50;99.90;;;9.59;96.76;100311.16;4806568;29;20116;-68
2021/01/12 05:46:53;;;;;;;28.17;7.35;;;9.50;99.90;;;9.44;97.05;100299.00;4806696;29;20082;-67
2021/01/12 05:49:24;;;;;;;26.25;6.55;;;9.40;99.90;;;9.47;96.62;100288.41;4806641;29;20455;-67
2021/01/12 05:51:53;;;;;;;22.00;6.55;;;9.50;99.90;;;9.52;96.58;100322.69;4806702;29;20476;-66
2021/01/12 05:54:32;;;;;;;25.23;5.88;;;9.40;99.90;;;9.56;96.26;100321.78;4806433;29;20051;-68
2021/01/12 05:57:01;;;;;;;31.88;6.63;;;9.40;99.90;;;9.53;95.70;100309.47;4806528;29;20054;-68
2021/01/12 05:59:33;;;;;;;25.27;6.50;;;9.40;99.90;;;9.58;95.89;100320.84;4806417;29;20059;-68
2021/01/12 06:02:05;;;;;;;20.25;6.45;;;9.50;99.90;;;9.51;95.86;100345.56;4806224;29;20421;-68
2021/01/12 06:04:36;;;;;;;16.45;5.97;;;9.40;99.90;;;9.34;95.85;100302.59;4790116;29;20066;-68
2021/01/12 06:07:05;;;;;;;18.83;5.63;;;9.30;99.90;;;9.49;95.73;100320.94;4806666;29;20051;-68
2021/01/12 06:09:33;;;;;;;13.93;5.68;;;9.30;99.90;;;9.50;95.43;100324.47;4806152;29;20307;-68
2021/01/12 06:12:00;;;;;;;12.73;5.10;;;9.30;99.90;;;9.39;95.65;100319.25;4805047;29;20067;-67
2021/01/12 06:14:30;;;;;;;19.65;5.32;;;9.30;99.90;;;9.37;95.82;100320.19;4806265;29;20088;-67
2021/01/12 06:17:00;;;;;;;21.85;5.53;;;9.20;99.90;;;9.33;96.02;100315.81;4806022;29;20455;-68
2021/01/12 06:19:29;;;;;;;14.98;4.70;;;9.20;99.90;;;9.31;96.52;100328.16;4804782;29;20061;-68
2021/01/12 06:22:17;;;;;;;16.83;5.30;;;9.20;99.90;;;9.39;96.17;100334.25;4806018;29;20457;-68
2021/01/12 06:25:03;;;;;;;11.32;5.25;;;9.20;99.90;;;9.25;96.05;100338.75;4789764;29;20560;-68
2021/01/12 06:27:33;;;;;;;15.43;5.22;;;9.20;99.90;;;9.27;95.91;100342.25;4789577;29;20145;-68
2021/01/12 06:30:05;;;;;;;16.83;5.15;;;9.20;99.90;;;8.77;95.63;100259.06;4806248;29;20055;-68
2021/01/12 06:32:35;;;;;;;14.60;4.93;;;9.10;99.90;;;9.18;95.05;100345.81;4789750;29;20059;-68
2021/01/12 06:35:06;;;;;;;18.42;5.50;;;9.10;99.90;;;9.18;95.01;100359.00;4805919;29;20054;-69
2021/01/12 06:37:37;;;;;;;18.63;5.43;;;9.10;99.90;;;9.13;95.15;100344.09;4805808;29;20046;-68
2021/01/12 06:40:08;;;;;;;18.80;5.07;;;9.10;99.90;;;9.28;95.08;100365.97;4805739;29;20059;-68
2021/01/12 06:42:37;;;;;;;18.27;5.28;;;9.10;99.90;;;9.23;94.97;100362.50;4805825;29;20413;-69
2021/01/12 06:45:08;;;;;;;17.52;5.75;;;9.10;99.90;;;9.30;94.97;100369.47;4805968;29;20046;-68
2021/01/12 06:47:37;;;;;;;17.35;5.57;;;9.10;99.90;;;9.36;94.89;100371.19;4805546;29;20116;-69
2021/01/12 06:50:08;;;;;;;18.17;5.72;;;9.20;99.90;;;9.36;94.34;100381.75;4804269;29;20066;-69
2021/01/12 06:52:43;;;;;;;15.90;6.18;;;9.20;99.90;;;9.26;94.20;100378.31;4805423;29;20050;-68
2021/01/12 06:55:14;;;;;;;18.88;5.43;;;9.20;99.90;;;9.28;93.88;100380.94;4805374;29;20051;-68
2021/01/12 06:57:45;;;;;;;14.75;5.32;;;9.20;99.90;;;8.68;93.42;100282.00;4805565;29;20096;-68
2021/01/12 07:00:16;;;;;;;17.05;6.05;;;9.10;99.90;;;8.81;93.69;100297.72;4805245;29;20074;-68
2021/01/12 07:02:43;;;;;;;16.75;5.13;;;9.10;99.90;;;9.25;94.03;100381.84;4805339;29;20051;-68
2021/01/12 07:05:15;;;;;;;14.13;4.97;;;9.20;99.90;;;9.25;94.21;100386.25;4805204;29;20087;-68
2021/01/12 07:07:47;;;;;;;17.13;5.32;;;9.10;99.90;;;9.35;94.80;100394.06;4805200;29;20051;-69
2021/01/12 07:10:17;;;;;;;20.08;6.15;;;9.20;99.90;;;9.19;94.68;100387.16;4804107;29;20058;-68
2021/01/12 07:12:45;;;;;;;15.63;5.67;;;9.10;99.90;;;8.97;95.12;100377.63;4805296;29;20047;-69
2021/01/12 07:15:17;;;;;;;18.88;5.82;;;9.00;99.90;;;9.17;95.39;100399.50;4803884;29;20062;-68
2021/01/12 07:17:46;;;;;;;15.25;6.20;;;9.00;99.90;;;9.20;95.18;100388.91;4805094;29;20466;-68
2021/01/12 07:20:19;;;;;;;15.15;6.85;;;9.10;99.90;;;9.24;95.14;100400.31;4804959;29;20059;-68
2021/01/12 07:22:54;;;;;;;18.50;6.03;;;9.10;99.90;;;9.11;94.98;100404.81;4805179;29;20450;-68
2021/01/12 07:25:24;;;;;;;22.80;6.72;;;9.00;99.90;;;9.08;94.90;100394.25;4804999;29;20133;-68
2021/01/12 07:28:01;;;;;;;18.88;6.38;;;9.00;99.90;;;9.12;94.98;100418.88;4805102;29;20390;-68
2021/01/12 07:30:30;;;;;;;18.20;6.03;;;9.00;99.90;;;9.18;94.11;100424.09;4788574;29;20074;-68
2021/01/12 07:32:59;;;;;;;13.88;5.75;;;9.10;99.90;;;8.96;93.52;100407.53;4804682;29;20141;-68
2021/01/12 07:35:28;;;;;;;17.20;5.93;;;9.10;99.90;;;9.28;93.36;100438.97;4803723;29;20401;-68
2021/01/12 07:37:56;;;;;;;16.38;5.57;;;9.10;99.90;;;9.50;92.47;100446.78;4804765;29;20058;-68
2021/01/12 07:40:24;;;;;;;12.40;5.10;;;9.30;99.90;;;9.52;91.61;100452.03;4804894;29;20054;-68
2021/01/12 07:42:54;;;;;;;13.35;5.18;;;9.40;99.90;;;9.62;90.70;100466.94;4804832;29;20398;-68
2021/01/12 07:45:24;;;;;;;;;;;9.50;99.90;;;9.58;89.99;100473.13;4805421;29;20055;-68
2021/01/12 07:47:55;;;;;;;10.70;4.95;;;9.60;99.90;;;9.60;89.06;100485.41;4804947;29;19925;-68
2021/01/12 07:50:26;;;;;;;10.73;4.65;;;9.50;99.90;;;9.51;88.67;100461.72;4804803;29;20073;-68
2021/01/12 07:52:55;;;;;;;14.13;4.88;;;9.60;99.90;;;9.69;88.66;100492.41;4805034;29;20066;-68
2021/01/12 07:55:22;;;;;;;17.90;5.20;;;9.60;99.90;;;9.12;88.52;100463.72;4804602;29;20084;-68
2021/01/12 07:57:51;;;;;;;17.95;6.00;;;9.40;99.90;;;9.43;88.87;100505.75;4804660;29;20055;-68
2021/01/12 08:00:20;;;;;;;21.27;5.97;;;9.40;99.90;;;9.36;89.31;100513.72;4804569;29;20461;-68
2021/01/12 08:02:52;;;;;;;16.80;5.10;;;9.30;99.90;;;9.44;89.07;100525.13;4804718;29;20047;-68
2021/01/12 08:05:23;;;;;;;14.70;5.65;;;9.30;99.90;;;9.53;88.65;100532.97;4805055;29;20063;-68
2021/01/12 08:07:51;;;;;;;;;;;9.40;99.90;;;9.51;88.13;100542.66;4805061;29;20054;-68
2021/01/12 08:10:18;;;;;;;15.10;5.43;;;9.50;99.90;;;9.45;87.29;100543.56;4805044;29;19928;-69
2021/01/12 08:13:05;;;;;;;16.15;5.03;;;9.40;99.90;;;9.33;86.47;100550.69;4804679;29;20173;-68
2021/01/12 08:15:33;;;;;;;10.02;4.80;;;9.30;99.90;;;9.39;86.34;100563.88;4788362;29;20058;-68
2021/01/12 08:18:04;;;;;;;15.40;4.82;;;9.30;99.90;;;9.43;85.15;100570.84;4788278;29;20055;-68
2021/01/12 08:20:32;;;;;;;16.77;5.50;;;9.30;99.90;;;9.26;85.50;100546.31;4804520;29;20071;-68
2021/01/12 08:23:00;;;;;;;11.70;5.03;;;9.40;99.90;;;9.45;84.83;100585.81;4804550;29;20119;-68
2021/01/12 08:25:28;;;;;;;12.80;5.00;;;9.40;99.90;;;9.33;83.97;100585.00;4804606;29;20141;-68
2021/01/12 08:27:59;;;;;;;13.43;4.57;;;9.30;99.90;;;9.37;84.29;100584.09;4804445;29;20051;-68
2021/01/12 08:30:29;;;;;;;13.68;5.68;;;9.30;99.90;;;9.49;84.13;100592.84;4804829;29;20051;-68
2021/01/12 08:33:03;;;;;;;11.63;4.55;;;9.40;99.90;;;9.48;83.20;100590.22;4804350;29;20501;-68
2021/01/12 08:35:33;;;;;;;18.73;6.00;;;9.40;99.90;;;9.45;82.58;100599.00;4804416;29;20078;-68
2021/01/12 08:38:06;;;;;;;11.07;4.97;;;9.40;99.90;;;9.55;82.83;100613.03;4803161;29;20051;-68
2021/01/12 08:40:44;;;;;;;9.57;4.70;;;9.40;99.90;;;9.44;82.73;100606.94;4804567;29;20501;-68
2021/01/12 08:43:15;;;;;;;13.63;5.53;;;9.40;99.90;;;9.55;82.75;100619.22;4804528;29;20043;-68
2021/01/12 08:45:43;;;;;;;13.70;5.78;;;9.50;99.90;;;9.60;82.30;100620.06;4807030;29;20130;-68
2021/01/12 08:48:15;;;;;;;8.10;4.47;;;9.50;99.90;;;9.00;81.68;100506.88;4807767;29;20163;-68
2021/01/12 08:50:44;;;;;;;11.13;5.05;;;9.60;99.90;;;9.75;81.95;100616.47;4791417;29;20050;-68
2021/01/12 08:53:15;;;;;;;14.60;4.63;;;9.60;99.90;;;9.63;81.29;100624.44;4807670;29;20058;-69
2021/01/12 08:55:43;;;;;;;9.32;4.70;;;9.60;99.90;;;9.68;80.71;100635.84;4807654;29;20062;-67
2021/01/12 08:58:12;;;;;;;12.77;4.50;;;9.60;99.90;;;9.57;81.31;100669.38;4807207;29;20128;-67
2021/01/12 09:00:41;;;;;;;11.27;4.63;;;9.60;99.90;;;9.65;81.06;100639.41;4807377;29;20428;-66
2021/01/12 09:03:14;;;;;;;;;;;9.60;99.90;;;9.67;80.77;100657.88;4791443;29;20062;-67
2021/01/12 09:05:43;;;;;;;10.27;5.20;;;9.60;99.90;;;9.32;81.16;100639.53;4807419;29;19948;-67
2021/01/12 09:08:13;;;;;;;13.73;4.97;;;9.40;99.90;;;9.40;81.07;100658.88;4806615;29;20055;-67
2021/01/12 09:10:41;;;;;;;17.40;4.57;;;9.30;99.90;;;9.45;81.31;100657.09;4806369;29;20058;-67
2021/01/12 09:13:10;;;;;;;10.40;4.20;;;9.40;99.90;;;9.35;80.76;100670.34;4806672;29;20119;-67
2021/01/12 09:15:40;;;;;;;13.38;4.82;;;9.30;99.90;;;9.19;80.97;100656.28;4806635;29;20058;-68
2021/01/12 09:18:13;;;;;;;14.05;4.90;;;9.20;99.90;;;9.14;80.81;100659.84;4806464;29;20066;-67
2021/01/12 09:20:41;;;;;;;10.80;4.82;;;9.10;99.90;;;9.37;80.14;100687.03;4806530;29;20047;-67
2021/01/12 09:23:12;;;;;;;11.40;5.07;;;9.20;99.90;;;9.31;78.98;100687.91;4806362;29;20043;-67
2021/01/12 09:25:41;;;;;;;;;;;9.20;99.90;;;8.94;78.08;100667.78;4806862;29;20070;-67
2021/01/12 09:28:17;;;;;;;15.18;4.78;;;9.10;99.90;;;9.17;76.66;100689.72;4806194;29;19986;-67
2021/01/12 09:30:47;;;;;;;15.60;5.28;;;9.20;99.90;;;9.26;76.69;100694.09;4804925;29;20047;-66
2021/01/12 09:33:22;;;;;;;17.02;5.38;;;9.20;99.90;;;9.27;75.51;100675.59;4804986;29;20281;-67
2021/01/12 09:36:08;;;;;;;14.27;5.80;;;9.40;99.90;;;9.21;76.15;100712.59;4804950;29;20063;-68
2021/01/12 09:38:37;;;;;;;17.70;5.55;;;9.20;99.90;;;9.15;77.31;100723.16;4806153;29;20061;-66
2021/01/12 09:41:06;;;;;;;17.42;5.70;;;9.10;99.90;;;9.22;78.21;100734.56;4804873;29;20069;-67
2021/01/12 09:43:34;;;;;;;14.85;6.00;;;9.10;99.90;;;9.33;77.81;100744.22;4806144;29;20058;-67
2021/01/12 09:46:01;;;;;;;13.73;5.85;;;9.30;99.90;;;9.24;77.83;100749.50;4804604;29;20062;-67
2021/01/12 09:48:30;;;;;;;14.98;5.18;;;9.20;99.90;;;9.09;78.22;100762.72;4806009;29;20050;-67
2021/01/12 09:50:58;;;;;;;13.23;5.22;;;9.10;99.90;;;9.13;77.61;100743.38;4805931;29;20125;-67
2021/01/12 09:53:26;;;;;;;13.18;4.43;;;9.20;99.90;;;9.07;76.71;100767.13;4805891;29;20066;-67
2021/01/12 09:55:54;;;;;;;11.10;5.43;;;9.10;99.90;;;9.23;76.31;100766.25;4805560;29;20479;-67
2021/01/12 09:58:26;;;;;;;11.52;4.90;;;9.20;99.90;;;9.39;75.98;100770.59;4805796;29;20058;-67
2021/01/12 10:00:54;;;;;;;14.05;5.22;;;9.30;99.90;;;9.83;75.64;100770.53;4804110;29;20157;-67
2021/01/12 10:03:22;;;;;;;13.30;4.85;;;9.70;99.90;;;9.91;73.91;100785.44;4805657;29;20057;-67
2021/01/12 10:05:49;;;;;;;14.90;4.68;;;9.90;99.90;;;9.15;72.90;100657.19;4805711;29;20070;-67
2021/01/12 10:08:18;;;;;;;14.60;4.93;;;9.90;99.90;;;10.03;73.09;100798.63;4805758;29;20409;-66
2021/01/12 10:10:45;;;;;;;15.55;5.07;;;10.00;99.90;;;9.96;72.28;100777.50;4805640;29;20059;-67
2021/01/12 10:13:13;;;;;;;13.80;4.90;;;10.00;99.90;;;10.14;72.10;100813.59;4805406;29;20082;-66
2021/01/12 10:15:41;;;;;;;16.67;5.50;;;10.10;99.90;;;9.96;71.87;100815.38;4805543;29;20059;-66
2021/01/12 10:18:08;;;;;;;11.55;5.18;;;10.00;99.90;;;9.91;71.45;100818.94;4805279;29;20059;-66
2021/01/12 10:20:36;;;;;;;14.93;4.93;;;9.80;99.90;;;9.79;70.96;100817.16;4789108;29;20066;-66
2021/01/12 10:23:03;;;;;;;12.23;4.90;;;9.80;99.90;;;9.77;70.85;100832.19;4804039;29;20097;-67
2021/01/12 10:25:32;;;;;;;15.82;5.20;;;9.80;99.90;;;9.60;69.84;100843.63;4789013;29;20074;-66
2021/01/12 10:28:02;;;;;;;12.25;4.97;;;9.60;99.90;;;9.43;69.61;100845.38;4805249;29;20477;-67
2021/01/12 10:30:30;;;;;;;10.80;4.45;;;9.50;99.90;;;9.36;70.13;100841.88;4805120;29;20415;-67
2021/01/12 10:32:58;;;;;;;10.82;4.35;;;9.40;99.90;;;9.70;70.25;100853.28;4805038;29;20053;-66
2021/01/12 10:35:26;;;;;;;8.88;4.53;;;9.60;99.90;;;9.82;69.83;100833.03;4805266;29;20087;-66